Air Resources Laboratory banner image
Air Resources Laboratory web site National Oceanic and Atmospheric Administration (NOAA)

fl metar


K40J 201755Z AUTO 24005KT 10SM BKN041 BKN090 33/22 A3008 RMK AO2 60001
 T03310219 10337 20246=
K40J 201815Z AUTO 19006KT 10SM SCT043 BKN055 34/22 A3008 RMK AO2 LTG DSNT W
 T03380221=
K40J 201835Z AUTO 24006KT 10SM SCT041 34/22 A3007 RMK AO2 LTG DSNT SE T03390222=
KAAF 201753Z AUTO 21010KT 10SM CLR 32/25 A3008 RMK AO2 LTG DSNT NE SLP184
 T03220250 10322 20250 58007=
KAPF 201753Z AUTO 23011KT 10SM SCT038 BKN050 BKN060 32/24 A3007 RMK AO2 LTG
 DSNT N AND S AND SW SLP183 T03170239 10328 20239 58010=
KBKV 201753Z 00000KT 10SM SCT037 33/23 A3010 RMK AO2 SLP192 T03280228 10328
 20233 58012=
KBOW 201745Z 14005KT 10SM BKN035 32/22 A3011=
KCEW 201753Z AUTO 25005KT 3SM +RA BR FEW034 SCT045 BKN060 24/23 A3008 RMK AO2
 RAE11B50 SLP184 P0003 60005 T02440228 10300 20228 58006=
KCOF 201756Z AUTO 12007KT 10SM FEW160 SCT200 31/25 A3010 RMK AO2 LTG DSNT SE
 SLP197 T03070253 10308 20263 58011 $=
KCRG 201753Z 34003KT 10SM FEW060 32/23 A3009 RMK AO2 SLP187 T03220228 10333
 20250 58015 $=
KCTY 201755Z AUTO 07006KT 4SM -TSRA BR SCT013 BKN036 OVC070 25/25 A3011 RMK AO2
 LTG DSNT N THRU S P0005 T0248//// 10330 20240 60005=
KDAB 201753Z 06008KT 10SM SCT035 SCT250 32/25 A3010 RMK AO2 SLP192 T03170250
 10328 20239 58011 $=
KDTS 201753Z 20005KT 10SM FEW022 31/24 A3006 RMK AO2 SLP178 T03110239 10317
 20283 56010=
KEGI 201755Z 30005KT 10SM FEW014 SCT025 BKN160 BKN210 26/24 A3007 RMK AO2A
 SLP182 P0000 60064 T02610237 10301 20232 58004 $=
KEYW 201756Z COR 130/08KT 10SM FEW025 31/24 A3008=
KFLL 201753Z 11013KT 10SM FEW028 FEW100 SCT180 SCT250 32/26 A3009 RMK AO2 LTG
 DSNT NW-E SLP190 CB DSNT NE-E MOV NW T03170261 10322 20289 58002=
KFMY 201753Z 31008KT 10SM VCTS BKN038 31/23 A3009 RMK AO2 LTG DSNT S SLP190
 T03110228 10317 20233 58007=
KFPR 201757Z 08010KT 3/4SM +TSRA BR FEW012 SCT026 OVC034 23/22 A3014 RMK AO2
 LTG DSNT E AND SE AND W P0014 T02280217=
KFXE 201753Z 13012KT 10SM SCT035 33/24 A3010 RMK AO2 LTG DSNT ALQDS SLP194
 T03330244 10339 20289 58002=
KGIF 201753Z AUTO 23005KT 10SM CLR 32/22 A3012 RMK AO2 SLP196 T03220222 10328
 20250 58011=
KGNV 201753Z 25006KT 4SM -RA SCT055 BKN070 OVC090 29/22 A3011 RMK AO2 LTG DSNT
 W AND NW RAB23 SLP194 P0002 60002 T02890217 10328 20244 58014=
KHRT 201756Z 19011KT 10SM SCT021 SCT200 31/22 A3005 RMK AO2A SLP177 T03080221
 10314 20248 56008 $=
KHST 201756Z AUTO 10008KT 10SM SCT030 32/24 A3008 RMK AO2 LTG DSNT NE AND W
 SLP189 T03180244 10320 20279 58002 FZRANO VISNO RWY24 $=
KHWO 201753Z 11013KT 10SM CLR 33/24 A3011 RMK AO2 LTG DSNT NW-E SLP194
 T03330239 10339 20283 58002 $=
KISM 201756Z VRB03KT 10SM BKN110 32/22 A3011 RMK AO2 SLP199 60001 T03170222
 10328 20250 58013=
KJAX 201756Z VRB04KT 10SM SCT038 BKN250 32/22 A3007 RMK AO2 SLP183 T03220217
 10333 20239 58017=
KLAL 201750Z 12003KT 10SM BKN040 31/22 A3011=
KLEE 201753Z 16005KT 10SM CLR 32/23 A3011 RMK AO2 SLP195 T03170228 10317 20250
 58011=
KMAI 201753Z AUTO 26009KT 7SM RA FEW030 SCT070 BKN100 29/26 A3005 RMK AO2 RAB49
 SLP174 P0001 60008 T02890256 10311 20233 56016=
KMCF 201756Z AUTO 05004KT 10SM FEW041 SCT170 SCT200 32/24 A3010 RMK AO2 SLP196
 T03160239 10318 20252 57009 FZRANO $=
KMCO 201753Z VRB05KT 10SM SCT043 SCT300 33/22 A3010 RMK AO2 SLP191 T03280217
 10328 20244 58013=
KMIA 201753Z 10010KT 10SM SCT030CB BKN250 32/25 A3009 RMK AO2 LTG DSNT NE
 SLP189 CB NW MOV NW T03170250 10328 20283 58002=
KMLB 201753Z 10008KT 10SM SCT027 31/24 A3011 RMK AO2 SLP194 60002 T03110239
 10328 20261 58008=
KMTH 201753Z AUTO 12009G14KT 10SM CLR 32/25 A3008 RMK AO2 LTG DSNT NW SLP187
 60001 T03220250 10322 20289 50001=
KNIP 201753Z 12007KT 10SM SCT038 BKN250 32/23 A3009 RMK AO2 SLP185 T2 SET
 T03220228 10322 20244 58015=
KNQX 201753Z 12008KT 10SM SCT024 SCT220 32/24 A3008 RMK AO2 SLP186 T2 SET 60000
 T03170244 10328 20289 50000 $=
KNRB 201752Z 08009KT 10SM SCT030 BKN250 32/25 A3009 RMK AO2 SLP188 T2 SET
 T03220250 10328 20261 58012 $=
KNSE 201801Z 26013G21KT 1 1/2SM +RA BR FEW017 BKN029 BKN055CB OVC130 24/23
 A3009 RMK AO2 CB OHD MOV NE T1 SET P0001 T02390233 $=
KOCF 201751Z 17005KT 10SM BKN039 31/23 A3010 RMK AO2 SLP193 T03110233 10322
 20233 58015 $=
KOMN 201750Z 07008KT 10SM SCT035 31/24 A3010=
KOPF 201753Z 11012KT 10SM CLR 33/24 A3010 RMK AO2 LTG DSNT E AND NW SLP192
 60000 T03280244 10333 20283 58002=
KORL 201753Z 08003KT 10SM SCT041 33/23 A3010 RMK AO2 SLP196 T03280228 10328
 20256 58013=
KPAM 201756Z AUTO 20007KT 10SM FEW024 31/25 A3007 RMK AO2 SLP186 60064
 T03060249 10306 20238 57010 $=
KPBI 201753Z 14009KT 10SM TS SCT027CB SCT032 BKN230 32/25 A3011 RMK AO2 SLP197
 OCNL LTGICCG W-NW TS W-NW MOV NW CB DSNT ALQDS 60001 T03170250 10322 20289
 58000 $=
KPGD 201753Z 00000KT 10SM SCT042 SCT055 32/22 A3011 RMK AO2 SLP196 T03220217
 10333 20244 58008=
KPIE 201753Z 05005KT 10SM FEW040 32/24 A3010 RMK AO2 SLP192 T03220239 10322
 20256 58009=
KPMP 201753Z 10010KT 10SM SCT024 33/25 A3011=
KPNS 201753Z 34008KT 10SM SCT022 BKN029 BKN037 26/23 A3006 RMK AO2 WSHFT 1710
 LTG DSNT N RAB36E51 SLP181 P0003 60081 T02610233 10300 20244 55005=
KRSW 201753Z 29003KT 10SM VCTS CLR 32/22 A3009 RMK AO2 SLP187 T03220222 10328
 20233 56007=
KSFB 201753Z 17007KT 10SM CLR 32/22 A3010 RMK AO2 SLP192 T03220222 10322 20244
 58012=
KSGJ 201756Z 10009KT 10SM CLR 31/24 A3010 RMK AO2 SLP193 T03060244 10311 20233
 58013=
KSPG 201754Z 00000KT 10SM CLR 32/23 A3011=
KSRQ 201753Z VRB06KT 10SM BKN044 32/23 A3008 RMK AO2 SLP185 T03170228 10333
 20239 58008=
KTIX 201754Z 10006KT 7SM SCT055 34/20 A3011=
KTLH 201753Z 12008KT 10SM BKN050 BKN250 32/24 A3006 RMK AO2 LTG DSNT SW SLP176
 T03170239 10328 20233 58016=
KTMB 201753Z 13008KT 10SM FEW029 SCT049 BKN065 33/25 A3008 RMK AO2 SLP186
 T03280250 10333 20272 58004=
KTPA 201753Z 22007KT 10SM SCT038TCU SCT150 33/23 A3010 RMK AO2 SLP193 TCU NW
 T03330228 10333 20267 58009=
KTTS 201756Z AUTO 10007KT 10SM -RA FEW130 SCT180 SCT210 30/24 A3011 RMK AO2
 RAB53 SLP200 P0000 60000 T02990243 10320 20246 57007 $=
KVPS 201755Z 19013KT 10SM SCT030TCU SCT180 BKN250 31/24 A3006 RMK AO2A SLP185
 TCU SE T03120238 10314 20249 57009 $=
KVQQ 201750Z VRB04KT 10SM BKN041 33/22 A3008=
KVRB 201753Z 22009KT 7SM VCTS -RA FEW055 SCT095 BKN110 26/23 A3014 RMK AO2 LTG
 DSNT SE-W RAB39 SLP205 P0000 60008 T02560233 10300 20239 52003=
KXMR 201756Z AUTO 13007KT 10SM FEW120 SCT170 SCT190 SCT210 31/23 A3010 RMK AO2
 LTG DSNT SE SLP196 T03100226 10323 20237 57008 $=